.
WxDataArchive / Data Records for 2012-03-31
2012-03-30 March 2012 2012-04-01

Data Records for Saturday, 31 March 2012

Time	Temp	Chill	HIndex	Humid	Dewpt	 Wind 	HiWind	WindDir	Rain 	Barom 
-----	----	-----	------	-----	-----	------	------	-------	-----	----- 
00:00	41.5	41.5	41.5	86	37.6	0	1	90	0.00	29.854 
00:05	41.5	41.5	41.5	87	37.9	0	1	90	0.00	29.854 
00:10	41.5	41.5	41.5	87	37.9	0	1	90	0.00	29.854 
00:15	41.5	41.5	41.5	87	37.9	0	3	90	0.00	29.845 
00:20	41.5	41.5	41.5	87	37.9	0	2	90	0.00	29.845 
00:25	41.5	41.5	41.5	87	37.9	0	1	90	0.00	29.845 
00:30	41.5	41.5	41.5	87	37.9	0	3	90	0.00	29.844 
00:35	41.5	41.5	41.5	87	37.9	0	1	90	0.00	29.844 
00:40	41.5	41.5	41.5	87	37.9	0	0	---	0.00	29.844 
00:45	41.5	41.5	41.5	87	37.9	0	1	90	0.00	29.850 
00:50	41.3	41.3	41.3	87	37.7	0	1	90	0.00	29.850 
00:55	41.3	41.3	41.3	87	37.7	0	1	90	0.00	29.850 
01:00	41.3	41.3	41.3	87	37.7	1	3	90	0.00	29.860 
01:05	41.3	41.3	41.3	87	37.7	1	3	90	0.00	29.860 
01:10	41.3	41.3	41.3	87	37.7	0	1	90	0.00	29.860 
01:15	41.3	41.3	41.3	88	38.0	0	1	90	0.00	29.863 
01:20	41.3	41.3	41.3	88	38.0	0	1	90	0.00	29.863 
01:25	41.3	41.3	41.3	88	38.0	0	2	90	0.00	29.863 
01:30	41.3	41.3	41.3	88	38.0	0	1	90	0.00	29.875 
01:35	41.2	41.2	41.2	88	37.9	0	2	90	0.00	29.875 
01:40	41.2	41.2	41.2	88	37.9	0	2	90	0.00	29.875 
01:45	41.2	41.2	41.2	88	37.9	1	3	90	0.00	29.878 
01:50	41.2	41.2	41.2	88	37.9	0	2	90	0.00	29.878 
01:55	41.2	41.2	41.2	88	37.9	0	2	90	0.00	29.878 
02:00	41.2	41.2	41.2	88	37.9	0	3	90	0.00	29.880 
02:05	41.1	41.1	41.1	88	37.8	0	2	90	0.00	29.880 
02:10	40.9	40.9	40.9	88	37.6	1	5	90	0.00	29.880 
02:15	40.9	40.9	40.9	88	37.6	2	4	90	0.00	29.887 
02:20	40.8	40.8	40.8	89	37.8	0	3	90	0.00	29.887 
02:25	40.8	40.8	40.8	89	37.8	0	2	90	0.00	29.887 
02:30	40.8	40.8	40.8	89	37.8	0	1	90	0.00	29.891 
02:35	40.8	40.8	40.8	89	37.8	0	3	90	0.00	29.891 
02:40	40.8	40.8	40.8	89	37.8	1	5	90	0.00	29.891 
02:45	40.8	40.8	40.8	89	37.8	1	4	90	0.00	29.893 
02:50	40.8	40.8	40.8	89	37.8	1	3	90	0.00	29.893 
02:55	40.8	40.8	40.8	89	37.8	0	1	90	0.00	29.893 
03:00	40.6	40.6	40.6	89	37.6	0	1	90	0.00	29.893 
03:05	40.6	40.6	40.6	89	37.6	0	2	90	0.00	29.893 
03:10	40.6	40.6	40.6	89	37.6	0	1	90	0.00	29.893 
03:15	40.5	40.5	40.5	90	37.8	0	2	90	0.00	29.896 
03:20	40.5	40.5	40.5	90	37.8	0	3	90	0.00	29.896 
03:25	40.3	40.3	40.3	90	37.6	0	3	90	0.00	29.896 
03:30	40.2	40.2	40.2	90	37.5	0	2	90	0.00	29.902 
03:35	40.2	40.2	40.2	90	37.5	0	1	90	0.00	29.902 
03:40	40.1	40.1	40.1	91	37.7	0	2	90	0.00	29.902 
03:45	39.9	39.9	39.9	91	37.5	0	1	90	0.00	29.909 
03:50	39.9	39.9	39.9	91	37.5	0	2	90	0.00	29.909 
03:55	39.9	39.9	39.9	91	37.5	0	2	90	0.00	29.909 
04:00	39.8	39.8	39.8	91	37.4	0	2	90	0.00	29.904 
04:05	39.6	39.6	39.6	92	37.5	1	3	90	0.00	29.904 
04:10	39.3	39.3	39.3	92	37.2	0	2	90	0.00	29.904 
04:15	39.2	39.2	39.2	92	37.1	0	3	90	0.00	29.904 
04:20	39.1	39.1	39.1	92	37.0	0	2	90	0.00	29.904 
04:25	39.1	39.1	39.1	92	37.0	1	4	90	0.00	29.904 
04:30	39.1	39.1	39.1	92	37.0	0	2	90	0.00	29.901 
04:35	39.1	39.1	39.1	92	37.0	1	4	90	0.00	29.901 
04:40	39.1	39.1	39.1	92	37.0	1	4	90	0.00	29.901 
04:45	39.1	39.1	39.1	93	37.2	0	4	90	0.00	29.903 
04:50	39.1	39.1	39.1	93	37.2	1	3	90	0.00	29.903 
04:55	38.9	38.9	38.9	93	37.1	0	3	90	0.00	29.903 
05:00	38.9	38.9	38.9	93	37.1	0	2	90	0.00	29.905 
05:05	38.9	38.9	38.9	93	37.1	0	2	90	0.00	29.905 
05:10	38.9	38.9	38.9	93	37.1	0	2	90	0.00	29.905 
05:15	38.9	38.9	38.9	93	37.1	0	3	90	0.00	29.914 
05:20	38.9	38.9	38.9	93	37.1	0	2	90	0.00	29.914 
05:25	38.8	38.8	38.8	93	37.0	0	3	90	0.00	29.914 
05:30	38.8	38.8	38.8	93	37.0	0	3	90	0.00	29.918 
05:35	38.8	38.8	38.8	93	37.0	0	4	90	0.00	29.918 
05:40	38.9	38.9	38.9	93	37.1	0	1	90	0.00	29.918 
05:45	38.9	38.9	38.9	93	37.1	0	2	90	0.00	29.922 
05:50	38.9	38.9	38.9	93	37.1	0	2	90	0.00	29.922 
05:55	38.9	38.9	38.9	93	37.1	0	1	90	0.00	29.922 
06:00	38.9	38.9	38.9	93	37.1	0	2	90	0.00	29.922 
06:05	38.9	38.9	38.9	93	37.1	0	1	90	0.00	29.922 
06:10	38.9	38.9	38.9	93	37.1	0	1	90	0.00	29.922 
06:15	38.9	38.9	38.9	93	37.1	0	1	90	0.00	29.926 
06:20	38.9	38.9	38.9	93	37.1	0	1	90	0.00	29.926 
06:25	38.9	38.9	38.9	93	37.1	1	3	90	0.00	29.926 
06:30	38.9	38.9	38.9	93	37.1	0	2	90	0.00	29.933 
06:35	38.8	38.8	38.8	93	37.0	0	2	90	0.00	29.933 
06:40	38.8	38.8	38.8	93	37.0	0	3	90	0.00	29.933 
06:45	38.6	38.6	38.6	93	36.8	0	2	90	0.00	29.934 
06:50	38.6	38.6	38.6	93	36.8	0	2	90	0.00	29.934 
06:55	38.6	38.6	38.6	93	36.8	0	2	90	0.00	29.934 
07:00	38.6	38.6	38.6	93	36.8	0	2	90	0.00	29.931 
07:05	38.6	38.6	38.6	93	36.8	0	0	---	0.00	29.931 
07:10	38.6	38.6	38.6	93	36.8	0	2	90	0.00	29.931 
07:15	38.6	38.6	38.6	93	36.8	0	2	90	0.00	29.943 
07:20	38.6	38.6	38.6	93	36.8	0	1	90	0.00	29.943 
07:25	38.6	38.6	38.6	93	36.8	0	1	90	0.00	29.943 
07:30	38.5	38.5	38.5	93	36.7	0	2	90	0.00	29.955 
07:35	38.6	38.6	38.6	93	36.8	0	3	90	0.00	29.955 
07:40	38.5	38.5	38.5	93	36.7	0	2	90	0.00	29.955 
07:45	38.5	38.5	38.5	93	36.7	0	2	90	0.00	29.969 
07:50	38.5	38.5	38.5	93	36.7	0	2	90	0.00	29.969 
07:55	38.5	38.5	38.5	93	36.7	0	2	90	0.00	29.969 
08:00	38.5	38.5	38.5	93	36.7	0	1	112	0.00	29.968 
08:05	38.5	38.5	38.5	93	36.7	0	3	112	0.00	29.968 
08:10	38.5	38.5	38.5	93	36.7	0	1	112	0.00	29.968 
08:15	38.5	38.5	38.5	93	36.7	0	0	---	0.00	29.972 
08:20	38.5	38.5	38.5	93	36.7	0	2	180	0.00	29.972 
08:25	38.5	38.5	38.5	93	36.7	1	4	158	0.00	29.972 
08:30	38.5	38.5	38.5	92	36.4	0	2	112	0.00	29.967 
08:35	38.3	38.3	38.3	92	36.2	0	3	112	0.00	29.967 
08:40	38.3	38.3	38.3	92	36.2	1	3	112	0.00	29.967 
08:45	38.3	38.3	38.3	92	36.2	1	4	112	0.00	29.961 
08:50	38.2	38.2	38.2	92	36.1	1	3	90	0.00	29.961 
08:55	38.2	38.2	38.2	92	36.1	1	4	90	0.00	29.961 
09:00	38.2	38.2	38.2	91	35.8	0	2	90	0.00	29.962 
09:05	38.2	38.2	38.2	91	35.8	0	2	90	0.00	29.962 
09:10	38.2	38.2	38.2	91	35.8	0	2	90	0.00	29.962 
09:15	38.3	38.3	38.3	91	35.9	0	3	90	0.00	29.961 
09:20	38.5	38.5	38.5	91	36.1	1	3	90	0.00	29.961 
09:25	38.6	38.6	38.6	91	36.2	0	3	90	0.00	29.961 
09:30	38.8	38.8	38.8	91	36.4	0	2	90	0.00	29.968 
09:35	38.9	38.9	38.9	91	36.5	0	2	90	0.00	29.968 
09:40	38.9	38.9	38.9	91	36.5	0	1	90	0.00	29.968 
09:45	38.9	38.9	38.9	91	36.5	0	1	90	0.00	29.975 
09:50	38.8	38.8	38.8	90	36.1	0	3	90	0.00	29.975 
09:55	38.8	38.8	38.8	90	36.1	1	3	90	0.00	29.975 
10:00	38.8	38.8	38.8	90	36.1	1	3	90	0.00	29.973 
10:05	38.8	38.8	38.8	90	36.1	1	3	90	0.00	29.973 
10:10	38.8	38.8	38.8	90	36.1	1	5	90	0.00	29.973 
10:15	38.8	38.8	38.8	90	36.1	1	4	90	0.00	29.975 
10:20	38.8	38.8	38.8	89	35.8	1	3	90	0.00	29.975 
10:25	38.9	38.9	38.9	89	35.9	0	1	90	0.00	29.975 
10:30	39.1	39.1	39.1	89	36.1	0	2	90	0.00	29.978 
10:35	39.2	39.2	39.2	89	36.2	1	4	112	0.00	29.978 
10:40	39.2	39.2	39.2	89	36.2	1	4	112	0.00	29.978 
10:45	39.3	39.3	39.3	88	36.0	1	4	112	0.00	29.984 
10:50	39.3	39.3	39.3	88	36.0	1	3	112	0.00	29.984 
10:55	39.6	39.6	39.6	88	36.3	0	1	112	0.00	29.984 
11:00	40.1	40.1	40.1	88	36.8	0	1	112	0.00	29.977 
11:05	40.3	40.3	40.3	87	36.7	0	4	112	0.00	29.977 
11:10	40.5	40.5	40.5	86	36.6	0	1	112	0.00	29.977 
11:15	40.5	40.5	40.5	85	36.4	0	2	22	0.00	29.990 
11:20	40.5	40.5	40.5	84	36.1	0	2	68	0.00	29.990 
11:25	40.5	40.5	40.5	83	35.8	0	2	68	0.00	29.990 
11:30	40.5	40.5	40.5	83	35.8	0	1	68	0.00	29.988 
11:35	40.6	40.6	40.6	82	35.5	0	1	68	0.00	29.988 
11:40	40.8	40.8	40.8	82	35.7	0	1	68	0.00	29.988 
11:45	40.9	40.9	40.9	81	35.5	0	1	68	0.00	29.989 
11:50	40.8	40.8	40.8	80	35.1	0	2	68	0.00	29.989 
11:55	40.8	40.8	40.8	80	35.1	0	2	68	0.00	29.989 
12:00	40.8	40.8	40.8	80	35.1	0	2	68	0.00	29.990 
12:05	40.8	40.8	40.8	79	34.8	1	5	68	0.00	29.990 
12:10	40.6	40.6	40.6	80	34.9	1	4	90	0.00	29.990 
12:15	40.8	40.8	40.8	80	35.1	1	5	90	0.00	29.977 
12:20	41.1	41.1	41.1	80	35.4	0	3	90	0.00	29.977 
12:25	41.2	41.2	41.2	79	35.2	1	3	90	0.00	29.977 
12:30	41.3	41.3	41.3	79	35.3	1	6	112	0.00	29.974 
12:35	41.5	41.5	41.5	77	34.8	1	5	112	0.00	29.974 
12:40	41.6	41.6	41.6	78	35.3	1	5	112	0.00	29.974 
12:45	41.8	41.8	41.8	77	35.1	1	3	112	0.00	29.976 
12:50	41.8	41.8	41.8	77	35.1	2	4	112	0.00	29.976 
12:55	41.8	41.8	41.8	77	35.1	1	4	90	0.00	29.976 
13:00	41.8	41.8	41.8	77	35.1	0	3	90	0.00	29.984 
13:05	42.1	42.1	42.1	77	35.4	1	3	90	0.00	29.984 
13:10	42.2	42.2	42.2	77	35.5	0	2	90	0.00	29.984 
13:15	42.3	42.3	42.3	77	35.6	0	2	90	0.00	29.989 
13:20	42.6	42.6	42.6	77	35.9	1	4	90	0.00	29.989 
13:25	42.6	42.6	42.6	77	35.9	1	4	90	0.00	29.989 
13:30	42.8	42.8	42.8	77	36.1	0	3	90	0.00	29.984 
13:35	42.9	42.9	42.9	76	35.9	0	3	90	0.00	29.984 
13:40	43.1	43.1	43.1	77	36.4	1	4	90	0.00	29.984 
13:45	43.1	43.1	43.1	77	36.4	0	2	90	0.00	29.987 
13:50	43.1	43.1	43.1	76	36.1	0	2	90	0.00	29.987 
13:55	43.1	43.1	43.1	76	36.1	0	1	90	0.00	29.987 
14:00	43.2	43.2	43.2	76	36.2	0	2	90	0.00	29.982 
14:05	43.3	43.3	43.3	76	36.3	0	3	45	0.00	29.982 
14:10	43.3	43.3	43.3	77	36.6	0	2	45	0.00	29.982 
14:15	43.3	43.3	43.3	76	36.3	1	3	112	0.00	29.971 
14:20	43.3	43.3	43.3	76	36.3	1	4	112	0.00	29.971 
14:25	43.3	43.3	43.3	75	35.9	1	4	112	0.00	29.971 
14:30	43.2	43.2	43.2	76	36.2	1	3	112	0.00	29.972 
14:35	43.3	43.3	43.3	76	36.3	0	2	112	0.00	29.972 
14:40	43.5	43.5	43.5	76	36.4	1	2	112	0.00	29.972 
14:45	43.8	43.8	43.8	75	36.4	1	4	112	0.00	29.964 
14:50	43.6	43.6	43.6	74	35.9	2	4	112	0.00	29.964 
14:55	43.6	43.6	43.6	75	36.2	1	4	112	0.00	29.964 
15:00	43.8	43.8	43.8	75	36.4	1	3	112	0.00	29.962 
15:05	43.9	43.9	43.9	74	36.2	1	4	112	0.00	29.962 
15:10	43.8	43.8	43.8	74	36.1	2	4	112	0.00	29.962 
15:15	43.8	43.8	43.8	75	36.4	2	5	112	0.00	29.964 
15:20	43.8	43.8	43.8	74	36.1	2	4	112	0.00	29.964 
15:25	43.9	43.9	43.9	75	36.5	0	2	112	0.00	29.964 
15:30	44.2	44.2	44.2	74	36.4	1	3	112	0.00	29.969 
15:35	43.9	43.9	43.9	73	35.8	3	7	112	0.00	29.969 
15:40	43.6	43.6	43.6	74	35.9	1	4	112	0.00	29.969 
15:45	43.8	43.8	43.8	76	36.7	0	3	112	0.00	29.971 
15:50	43.9	43.9	43.9	74	36.2	1	3	112	0.00	29.971 
15:55	43.9	43.9	43.9	73	35.8	1	3	112	0.00	29.971 
16:00	43.9	43.9	43.9	73	35.8	1	4	112	0.00	29.964 
16:05	44.1	44.1	44.1	73	36.0	1	4	112	0.00	29.964 
16:10	43.9	43.9	43.9	74	36.2	1	2	112	0.00	29.964 
16:15	44.1	44.1	44.1	74	36.4	0	4	112	0.00	29.962 
16:20	43.9	43.9	43.9	74	36.2	2	4	112	0.00	29.962 
16:25	43.8	43.8	43.8	74	36.1	1	3	112	0.00	29.962 
16:30	43.8	43.8	43.8	74	36.1	1	4	112	0.00	29.965 
16:35	43.8	43.8	43.8	74	36.1	0	3	112	0.00	29.965 
16:40	43.9	43.9	43.9	74	36.2	1	2	112	0.00	29.965 
16:45	43.9	43.9	43.9	74	36.2	1	4	112	0.00	29.973 
16:50	43.9	43.9	43.9	74	36.2	0	3	112	0.00	29.973 
16:55	44.1	44.1	44.1	74	36.4	0	2	112	0.00	29.973 
17:00	44.1	44.1	44.1	74	36.4	1	3	112	0.00	29.974 
17:05	44.1	44.1	44.1	73	36.0	0	3	112	0.00	29.974 
17:10	44.2	44.2	44.2	74	36.4	0	2	112	0.00	29.974 
17:15	44.1	44.1	44.1	73	36.0	1	5	112	0.00	29.968 
17:20	44.1	44.1	44.1	73	36.0	0	3	112	0.00	29.968 
17:25	44.1	44.1	44.1	74	36.4	1	3	112	0.00	29.968 
17:30	44.2	44.2	44.2	74	36.4	1	3	112	0.00	29.962 
17:35	44.2	44.2	44.2	73	36.1	0	2	135	0.00	29.962 
17:40	44.1	44.1	44.1	73	36.0	1	3	135	0.00	29.962 
17:45	44.1	44.1	44.1	73	36.0	1	2	135	0.00	29.962 
17:50	44.1	44.1	44.1	73	36.0	1	2	135	0.00	29.962 
17:55	44.1	44.1	44.1	73	36.0	2	4	135	0.00	29.962 
18:00	44.1	44.1	44.1	74	36.4	1	3	135	0.00	29.956 
18:05	44.1	44.1	44.1	73	36.0	1	3	135	0.00	29.956 
18:10	43.9	43.9	43.9	73	35.8	2	4	135	0.00	29.956 
18:15	44.1	44.1	44.1	73	36.0	0	3	135	0.00	29.959 
18:20	44.1	44.1	44.1	73	36.0	0	1	135	0.00	29.959 
18:25	44.1	44.1	44.1	73	36.0	0	2	135	0.00	29.959 
18:30	44.1	44.1	44.1	73	36.0	0	1	135	0.00	29.968 
18:35	43.9	43.9	43.9	73	35.8	0	2	135	0.00	29.968 
18:40	44.1	44.1	44.1	73	36.0	0	2	135	0.00	29.968 
18:45	44.1	44.1	44.1	74	36.4	1	2	135	0.00	29.961 
18:50	44.1	44.1	44.1	74	36.4	1	4	135	0.00	29.961 
18:55	44.1	44.1	44.1	73	36.0	1	4	135	0.00	29.961 
19:00	43.8	43.8	43.8	74	36.1	2	4	135	0.00	29.954 
19:05	43.6	43.6	43.6	74	35.9	2	5	68	0.00	29.954 
19:10	43.6	43.6	43.6	74	35.9	1	3	90	0.00	29.954 
19:15	43.6	43.6	43.6	74	35.9	0	2	90	0.00	29.956 
19:20	43.5	43.5	43.5	74	35.8	0	3	135	0.00	29.956 
19:25	43.5	43.5	43.5	74	35.8	1	2	135	0.00	29.956 
19:30	43.3	43.3	43.3	74	35.6	0	2	135	0.00	29.960 
19:35	43.2	43.2	43.2	75	35.8	1	3	135	0.00	29.960 
19:40	43.1	43.1	43.1	75	35.7	2	4	90	0.00	29.960 
19:45	42.9	42.9	42.9	75	35.5	1	4	90	0.00	29.958 
19:50	42.8	42.8	42.8	75	35.4	1	3	90	0.00	29.958 
19:55	42.6	42.6	42.6	75	35.2	1	4	90	0.00	29.958 
20:00	42.6	42.6	42.6	76	35.6	0	1	90	0.00	29.955 
20:05	42.6	42.6	42.6	76	35.6	0	1	90	0.00	29.955 
20:10	42.6	42.6	42.6	76	35.6	1	4	90	0.00	29.955 
20:15	42.6	42.6	42.6	77	35.9	1	4	90	0.00	29.947 
20:20	42.6	42.6	42.6	77	35.9	1	2	90	0.00	29.947 
20:25	42.6	42.6	42.6	77	35.9	0	3	112	0.00	29.947 
20:30	42.6	42.6	42.6	77	35.9	0	3	112	0.00	29.948 
20:35	42.5	42.5	42.5	77	35.8	1	3	112	0.00	29.948 
20:40	42.5	42.5	42.5	77	35.8	1	2	112	0.00	29.948 
20:45	42.3	42.3	42.3	77	35.6	1	3	112	0.00	29.945 
20:50	42.2	42.2	42.2	77	35.5	0	2	112	0.00	29.945 
20:55	42.2	42.2	42.2	78	35.8	0	1	112	0.00	29.945 
21:00	42.2	42.2	42.2	78	35.8	0	1	112	0.00	29.949 
21:05	42.1	42.1	42.1	78	35.7	0	3	112	0.00	29.949 
21:10	41.9	41.9	41.9	78	35.5	0	2	112	0.00	29.949 
21:15	41.9	41.9	41.9	78	35.5	0	0	---	0.00	29.958 
21:20	41.8	41.8	41.8	78	35.5	0	1	112	0.00	29.958 
21:25	41.8	41.8	41.8	78	35.5	0	1	112	0.00	29.958 
21:30	41.8	41.8	41.8	79	35.8	0	2	112	0.00	29.954 
21:35	41.8	41.8	41.8	79	35.8	0	3	112	0.00	29.954 
21:40	41.9	41.9	41.9	79	35.9	0	2	112	0.00	29.954 
21:45	41.9	41.9	41.9	79	35.9	0	2	112	0.00	29.960 
21:50	41.9	41.9	41.9	79	35.9	0	1	112	0.00	29.960 
21:55	41.8	41.8	41.8	79	35.8	0	3	112	0.00	29.960 
22:00	41.8	41.8	41.8	79	35.8	0	2	112	0.00	29.963 
22:05	41.8	41.8	41.8	80	36.1	0	1	112	0.00	29.963 
22:10	41.6	41.6	41.6	79	35.6	0	1	112	0.00	29.963 
22:15	41.6	41.6	41.6	79	35.6	0	1	112	0.00	29.958 
22:20	41.6	41.6	41.6	79	35.6	0	2	112	0.00	29.958 
22:25	41.5	41.5	41.5	79	35.5	0	3	112	0.00	29.958 
22:30	41.5	41.5	41.5	79	35.5	0	2	112	0.00	29.960 
22:35	41.3	41.3	41.3	80	35.6	0	2	112	0.00	29.960 
22:40	41.3	41.3	41.3	80	35.6	0	2	112	0.00	29.960 
22:45	41.5	41.5	41.5	80	35.8	1	3	112	0.00	29.960 
22:50	41.5	41.5	41.5	80	35.8	0	2	112	0.00	29.960 
22:55	41.5	41.5	41.5	81	36.1	0	1	112	0.00	29.960 
23:00	41.5	41.5	41.5	81	36.1	0	1	112	0.00	29.958 
23:05	41.5	41.5	41.5	80	35.8	1	2	112	0.00	29.958 
23:10	41.5	41.5	41.5	80	35.8	0	3	112	0.00	29.958 
23:15	41.5	41.5	41.5	80	35.8	0	2	112	0.00	29.949 
23:20	41.3	41.3	41.3	80	35.6	0	2	112	0.00	29.949 
23:25	41.2	41.2	41.2	80	35.5	0	1	112	0.00	29.949 
23:30	41.1	41.1	41.1	81	35.7	0	2	112	0.00	29.935 
23:35	41.1	41.1	41.1	81	35.7	0	2	112	0.00	29.935 
23:40	40.9	40.9	40.9	81	35.5	1	2	112	0.00	29.935 
23:45	40.8	40.8	40.8	81	35.4	1	5	112	0.00	29.928 
23:50	40.8	40.8	40.8	81	35.4	1	5	112	0.00	29.928 
23:55	40.6	40.6	40.6	81	35.2	0	1	112	0.00	29.928 

CoCoRaHS
IN-AL-39
A2 Web Hosting
Creative Commons License
GoDaddy
search engine by freefind advanced

loaded 2018-11-17 00:36:56 • last modified 2010-11-18 10:43:29
Privacy PolicyDisclaimer
• wx.awcolley.com is powered by PmWiki v.2002016 •
• all content (unless otherwise noted) © 2018 A W Colley